createdAt,value
2023-05-11T00:01:23.846Z,0.50
2023-05-11T00:06:25.819Z,0.43
2023-05-11T00:11:27.570Z,0.50
2023-05-11T00:16:29.231Z,0.50
2023-05-11T00:21:30.903Z,0.40
2023-05-11T00:26:32.536Z,0.57
2023-05-11T00:31:34.297Z,0.60
2023-05-11T00:36:39.251Z,0.40
2023-05-11T00:41:42.159Z,0.40
2023-05-11T00:46:43.735Z,0.40
2023-05-11T00:51:45.494Z,0.70
2023-05-11T00:56:48.348Z,0.77
2023-05-11T01:01:50.130Z,0.40
2023-05-11T01:07:07.059Z,0.40
2023-05-11T01:12:15.825Z,1.37
2023-05-11T01:17:35.095Z,0.50
2023-05-11T01:22:53.698Z,0.57
2023-05-11T01:28:10.664Z,0.77
2023-05-11T01:33:13.713Z,2.30
2023-05-11T01:38:15.915Z,0.40
2023-05-11T01:43:22.157Z,0.53
2023-05-11T01:48:26.186Z,0.53
2023-05-11T01:53:33.173Z,0.50
2023-05-11T01:58:36.376Z,0.60
2023-05-11T02:03:38.902Z,0.67
2023-05-11T02:08:40.975Z,0.67
2023-05-11T02:13:44.989Z,0.93
2023-05-11T02:18:47.501Z,0.57
2023-05-11T02:23:50.068Z,0.60
2023-05-11T02:28:51.609Z,0.60
2023-05-11T02:33:53.911Z,0.70
2023-05-11T02:39:04.163Z,0.60
2023-05-11T02:44:06.419Z,0.60
2023-05-11T02:49:10.436Z,0.60
2023-05-11T02:54:13.155Z,0.70
2023-05-11T02:59:20.804Z,0.50
2023-05-11T03:04:22.709Z,1.03
2023-05-11T03:09:24.434Z,0.83
2023-05-11T03:14:27.408Z,0.70
2023-05-11T03:19:31.818Z,0.63
2023-05-11T03:24:34.438Z,0.70
2023-05-11T03:29:38.420Z,1.20
2023-05-11T03:34:40.386Z,0.73
2023-05-11T03:39:46.640Z,2.00
2023-05-11T03:44:50.005Z,0.70
2023-05-11T03:49:52.349Z,1.40
2023-05-11T03:54:54.125Z,0.70
2023-05-11T03:59:55.937Z,0.60
2023-05-11T04:04:58.542Z,0.67
2023-05-11T04:10:00.373Z,0.80
2023-05-11T04:15:02.118Z,0.80
2023-05-11T04:20:03.860Z,0.60
2023-05-11T04:25:05.987Z,0.90
2023-05-11T04:30:08.159Z,0.70
2023-05-11T04:35:10.283Z,0.67
2023-05-11T04:40:14.752Z,0.70
2023-05-11T04:45:17.817Z,0.83
2023-05-11T04:50:19.837Z,0.97
2023-05-11T04:55:21.916Z,0.77
2023-05-11T05:00:23.601Z,0.73
2023-05-11T05:05:25.496Z,0.70
2023-05-11T05:10:27.183Z,0.90
2023-05-11T05:15:28.787Z,0.90
2023-05-11T05:20:44.637Z,0.90
2023-05-11T05:25:46.649Z,1.03
2023-05-11T05:30:48.689Z,1.00
2023-05-11T05:35:50.668Z,0.90
2023-05-11T05:40:52.331Z,1.03
2023-05-11T05:45:54.130Z,0.90
2023-05-11T05:50:56.122Z,1.20
2023-05-11T05:55:57.890Z,1.13
2023-05-11T06:01:00.908Z,1.40
2023-05-11T06:06:02.866Z,1.40
2023-05-11T06:11:04.905Z,1.40
2023-05-11T06:16:06.818Z,1.50
2023-05-11T06:21:09.616Z,1.83
2023-05-11T06:26:12.192Z,1.87
2023-05-11T06:31:15.104Z,2.00
2023-05-11T06:36:18.499Z,2.20
2023-05-11T06:41:21.478Z,3.27
2023-05-11T06:46:23.490Z,2.63
2023-05-11T06:51:25.301Z,2.80
2023-05-11T06:56:28.009Z,3.40
2023-05-11T07:01:29.793Z,4.13
2023-05-11T07:06:31.395Z,5.83
2023-05-11T07:11:32.968Z,3.67
2023-05-11T07:16:38.308Z,6.37
2023-05-11T07:21:39.959Z,3.70
2023-05-11T07:26:41.738Z,3.47
2023-05-11T07:31:44.072Z,2.83
2023-05-11T07:36:46.450Z,3.10
2023-05-11T07:41:48.129Z,3.10
2023-05-11T07:46:50.113Z,3.67
2023-05-11T07:51:52.628Z,4.23
2023-05-11T07:56:54.305Z,3.63
2023-05-11T08:01:55.913Z,3.70
2023-05-11T08:06:58.404Z,5.17
2023-05-11T08:12:01.815Z,5.77
2023-05-11T08:17:03.697Z,4.10
2023-05-11T08:22:05.301Z,4.30
2023-05-11T08:27:06.932Z,4.07
2023-05-11T08:32:08.712Z,4.47
2023-05-11T08:37:10.501Z,5.00
2023-05-11T08:42:13.984Z,4.03
2023-05-11T08:52:20.611Z,4.10
2023-05-11T08:57:22.948Z,5.33
2023-05-11T09:02:25.495Z,4.83
2023-05-11T09:07:27.687Z,4.27
2023-05-11T09:12:29.908Z,4.77
2023-05-11T09:17:31.661Z,6.23
2023-05-11T09:22:41.623Z,2.97
2023-05-11T09:27:44.859Z,3.73
2023-05-11T09:32:54.612Z,4.90
2023-05-11T09:38:12.547Z,3.30
2023-05-11T09:43:19.628Z,3.03
2023-05-11T09:48:21.260Z,3.97
2023-05-11T09:53:38.711Z,3.87
2023-05-11T09:58:54.994Z,4.10
2023-05-11T10:04:06.077Z,3.10
2023-05-11T10:09:24.493Z,2.77
2023-05-11T10:14:28.508Z,3.23
2023-05-11T10:19:30.640Z,3.67
2023-05-11T10:24:32.683Z,2.70
2023-05-11T10:29:34.624Z,5.43
2023-05-11T10:34:36.997Z,2.90
2023-05-11T10:39:39.649Z,3.73
2023-05-11T10:45:01.597Z,3.50
2023-05-11T10:50:34.647Z,3.20
2023-05-11T10:55:47.203Z,2.70
2023-05-11T11:00:57.711Z,3.27
2023-05-11T11:06:00.852Z,3.50
2023-05-11T11:11:04.453Z,3.27
2023-05-11T11:16:13.270Z,4.50
2023-05-11T11:21:41.433Z,3.70
2023-05-11T11:26:48.053Z,4.20
2023-05-11T11:31:49.788Z,4.80
2023-05-11T11:37:06.545Z,4.27
2023-05-11T11:42:13.532Z,4.40
2023-05-11T11:47:20.088Z,5.17
2023-05-11T11:52:31.068Z,5.17
2023-05-11T11:57:32.859Z,5.17
2023-05-11T12:02:35.148Z,5.23
2023-05-11T12:07:41.709Z,3.93
2023-05-11T12:12:47.808Z,6.70
2023-05-11T12:17:49.452Z,4.57
2023-05-11T12:22:51.345Z,5.67
2023-05-11T12:28:00.414Z,4.77
2023-05-11T12:33:04.577Z,6.30
2023-05-11T12:38:06.384Z,3.57
2023-05-11T12:43:08.092Z,5.37
2023-05-11T12:48:10.915Z,4.77
2023-05-11T12:53:16.952Z,5.40
2023-05-11T12:58:19.358Z,4.53
2023-05-11T13:03:29.733Z,3.83
2023-05-11T13:08:31.567Z,3.60
2023-05-11T13:13:33.250Z,3.67
2023-05-11T13:18:34.886Z,4.03
2023-05-11T13:23:37.015Z,4.47
2023-05-11T13:28:38.647Z,4.23
2023-05-11T13:33:41.946Z,3.40
2023-05-11T13:38:43.798Z,4.47
2023-05-11T13:43:47.604Z,3.97
2023-05-11T13:48:49.411Z,3.20
2023-05-11T13:53:51.517Z,4.13
2023-05-11T13:58:53.178Z,3.63
2023-05-11T14:03:56.129Z,5.20
2023-05-11T14:08:58.088Z,5.07
2023-05-11T14:13:59.666Z,3.90
2023-05-11T14:19:01.397Z,4.77
2023-05-11T14:24:11.368Z,6.03
2023-05-11T14:29:15.714Z,4.67
2023-05-11T14:34:17.858Z,4.10
2023-05-11T14:39:19.492Z,4.60
2023-05-11T14:44:25.263Z,4.67
2023-05-11T14:49:27.481Z,4.30
2023-05-11T14:54:29.989Z,5.73
2023-05-11T14:59:31.821Z,4.60
2023-05-11T15:04:34.573Z,3.87
2023-05-11T15:09:36.138Z,5.43
2023-05-11T15:14:37.737Z,4.50
2023-05-11T15:19:39.374Z,4.60
2023-05-11T15:24:41.264Z,4.23
2023-05-11T15:29:42.922Z,6.50
2023-05-11T15:34:58.736Z,4.73
2023-05-11T15:40:01.201Z,4.80
2023-05-11T15:45:06.346Z,4.80
2023-05-11T15:50:09.309Z,5.73
2023-05-11T15:55:11.494Z,5.00
2023-05-11T16:00:13.997Z,4.50
2023-05-11T16:05:15.781Z,6.27
2023-05-11T16:10:17.604Z,8.93
2023-05-11T16:15:19.265Z,6.37
2023-05-11T16:20:21.607Z,4.57
2023-05-11T16:25:23.976Z,7.13
2023-05-11T16:30:26.057Z,5.33
2023-05-11T16:35:27.808Z,6.90
2023-05-11T16:40:29.394Z,5.67
2023-05-11T16:45:31.060Z,6.80
2023-05-11T16:50:32.806Z,8.43
2023-05-11T16:55:34.571Z,5.10
2023-05-11T17:00:36.240Z,7.43
2023-05-11T17:05:37.850Z,6.73
2023-05-11T17:10:40.382Z,6.77
2023-05-11T17:15:42.113Z,5.70
2023-05-11T17:20:44.065Z,5.47
2023-05-11T17:25:45.638Z,3.97
2023-05-11T17:30:51.846Z,4.63
2023-05-11T17:35:54.508Z,3.97
2023-05-11T17:40:58.528Z,3.50
2023-05-11T17:46:01.533Z,3.37
2023-05-11T17:51:03.325Z,3.40
2023-05-11T17:56:06.826Z,3.40
2023-05-11T18:01:09.417Z,3.60
2023-05-11T18:06:11.535Z,4.10
2023-05-11T18:11:13.959Z,4.00
2023-05-11T18:16:18.599Z,3.50
2023-05-11T18:21:20.324Z,4.27
2023-05-11T18:26:22.255Z,3.33
2023-05-11T18:31:23.945Z,3.57
2023-05-11T18:36:26.211Z,4.07
2023-05-11T18:41:28.460Z,4.20
2023-05-11T18:46:30.209Z,4.87
2023-05-11T18:51:32.624Z,3.80
2023-05-11T18:56:34.331Z,3.37
2023-05-11T19:01:47.037Z,3.33
2023-05-11T19:06:49.644Z,2.87
2023-05-11T19:11:51.495Z,3.10
2023-05-11T19:16:53.128Z,3.87
2023-05-11T19:21:54.860Z,3.60
2023-05-11T19:27:06.790Z,5.47
2023-05-11T19:32:09.700Z,4.40
2023-05-11T19:37:11.386Z,3.93
2023-05-11T19:42:13.919Z,3.73
2023-05-11T19:47:15.823Z,5.50
2023-05-11T19:52:17.438Z,4.17
2023-05-11T19:57:19.845Z,4.37
2023-05-11T20:02:22.448Z,5.03
2023-05-11T20:07:24.048Z,5.37
2023-05-11T20:12:25.703Z,5.37
2023-05-11T20:17:27.417Z,4.60
2023-05-11T20:22:29.203Z,5.83
2023-05-11T20:27:30.928Z,4.90
2023-05-11T20:32:32.464Z,5.07
2023-05-11T20:37:34.171Z,4.37
2023-05-11T20:42:38.057Z,5.57
2023-05-11T20:47:39.664Z,6.27
2023-05-11T20:52:41.399Z,5.80
2023-05-11T20:57:42.996Z,6.83
2023-05-11T21:02:45.804Z,7.30
2023-05-11T21:07:47.508Z,6.37
2023-05-11T21:12:49.431Z,8.10
2023-05-11T21:17:51.129Z,8.67
2023-05-11T21:22:52.730Z,8.60
2023-05-11T21:27:54.447Z,6.90
2023-05-11T21:32:56.105Z,8.57
2023-05-11T21:37:58.453Z,8.20
2023-05-11T21:43:00.056Z,7.20
2023-05-11T21:48:01.955Z,8.07
2023-05-11T21:53:04.133Z,6.70
2023-05-11T21:58:05.833Z,7.67
2023-05-11T22:03:09.153Z,10.03
2023-05-11T22:08:15.456Z,10.33
2023-05-11T22:13:17.517Z,11.67
2023-05-11T22:18:19.107Z,8.10
2023-05-11T22:23:21.449Z,9.80
2023-05-11T22:28:23.278Z,11.33
2023-05-11T22:33:25.502Z,12.00
2023-05-11T22:38:27.916Z,16.60
2023-05-11T22:43:30.401Z,14.27
2023-05-11T22:48:31.983Z,15.40
2023-05-11T22:53:33.737Z,17.20
2023-05-11T22:58:35.364Z,13.30
2023-05-11T23:03:37.133Z,11.47
2023-05-11T23:08:39.398Z,10.77
2023-05-11T23:13:42.814Z,10.50
2023-05-11T23:18:44.964Z,10.00
2023-05-11T23:23:46.868Z,5.80
2023-05-11T23:28:48.467Z,4.57
2023-05-11T23:33:50.055Z,5.17
2023-05-11T23:38:53.313Z,4.83
2023-05-11T23:43:55.089Z,7.20
2023-05-11T23:48:56.710Z,5.83
2023-05-11T23:53:58.357Z,6.33
2023-05-11T23:58:59.978Z,5.90
